createdAt,value
2023-03-24T00:04:59.633Z,10.10
2023-03-24T00:12:38.424Z,10.08
2023-03-24T00:20:16.441Z,10.06
2023-03-24T00:27:52.231Z,10.03
2023-03-24T00:35:26.576Z,10.02
2023-03-24T00:43:01.909Z,10.02
2023-03-24T00:50:35.794Z,10.02
2023-03-24T00:58:11.062Z,10.05
2023-03-24T01:05:48.345Z,10.06
2023-03-24T01:13:25.952Z,10.07
2023-03-24T01:21:01.269Z,10.10
2023-03-24T01:28:40.728Z,10.09
2023-03-24T01:36:14.721Z,10.12
2023-03-24T01:43:50.028Z,10.10
2023-03-24T01:51:27.111Z,10.09
2023-03-24T01:59:07.283Z,10.09
2023-03-24T02:06:44.758Z,10.10
2023-03-24T02:14:20.346Z,10.15
2023-03-24T02:22:26.232Z,10.25
2023-03-24T02:30:22.754Z,10.40
2023-03-24T02:38:24.896Z,10.43
2023-03-24T02:46:14.348Z,10.49
2023-03-24T02:53:56.735Z,10.50
2023-03-24T03:01:37.961Z,10.52
2023-03-24T03:09:16.390Z,10.52
2023-03-24T03:16:59.998Z,10.52
2023-03-24T03:24:39.292Z,10.51
2023-03-24T03:32:19.657Z,10.50
2023-03-24T03:39:57.652Z,10.51
2023-03-24T03:47:34.567Z,10.54
2023-03-24T03:55:11.613Z,10.60
2023-03-24T04:03:05.515Z,10.65
2023-03-24T04:10:56.886Z,10.69
2023-03-24T04:18:48.301Z,10.73
2023-03-24T04:26:29.275Z,10.72
2023-03-24T04:34:09.613Z,10.75
2023-03-24T04:41:45.094Z,10.83
2023-03-24T04:49:20.520Z,10.86
2023-03-24T04:56:56.360Z,10.90
2023-03-24T05:04:37.346Z,10.94
2023-03-24T05:12:13.110Z,11.04
2023-03-24T05:19:48.560Z,11.07
2023-03-24T05:27:22.531Z,11.12
2023-03-24T05:34:57.906Z,11.24
2023-03-24T05:42:31.804Z,11.35
2023-03-24T05:50:08.357Z,11.40
2023-03-24T05:57:43.680Z,11.41
2023-03-24T06:05:20.303Z,11.54
2023-03-24T06:12:54.530Z,11.56
2023-03-24T06:20:30.218Z,11.66
2023-03-24T06:28:04.448Z,11.73
2023-03-24T06:35:40.010Z,11.78
2023-03-24T06:43:14.085Z,11.88
2023-03-24T06:50:49.789Z,11.98
2023-03-24T06:58:23.847Z,12.08
2023-03-24T07:06:00.946Z,12.16
2023-03-24T07:13:35.261Z,12.21
2023-03-24T07:21:10.525Z,12.29
2023-03-24T07:28:44.353Z,12.43
2023-03-24T07:36:19.762Z,12.55
2023-03-24T07:43:54.122Z,12.67
2023-03-24T07:51:29.912Z,12.74
2023-03-24T07:59:04.006Z,12.71
2023-03-24T08:06:40.260Z,12.64
2023-03-24T08:14:14.685Z,12.63
2023-03-24T08:21:50.060Z,12.57
2023-03-24T08:29:24.122Z,12.56
2023-03-24T08:36:59.641Z,12.56
2023-03-24T08:44:33.733Z,12.55
2023-03-24T08:52:09.595Z,12.65
2023-03-24T08:59:43.636Z,12.74
2023-03-24T09:07:19.112Z,12.83
2023-03-24T09:14:53.121Z,12.89
2023-03-24T09:22:28.582Z,12.97
2023-03-24T09:30:02.711Z,13.13
2023-03-24T09:37:39.728Z,13.49
2023-03-24T09:45:17.940Z,13.83
2023-03-24T09:52:56.459Z,14.19
2023-03-24T10:00:33.308Z,14.38
2023-03-24T10:08:15.827Z,14.35
2023-03-24T10:15:56.717Z,14.23
2023-03-24T10:23:37.921Z,14.18
2023-03-24T10:31:14.927Z,14.27
2023-03-24T10:38:50.638Z,14.64
2023-03-24T10:46:28.289Z,14.84
2023-03-24T10:54:15.491Z,14.87
2023-03-24T11:01:52.621Z,14.95
2023-03-24T11:17:23.353Z,15.10
2023-03-24T11:24:58.887Z,15.34
2023-03-24T11:32:32.956Z,15.34
2023-03-24T11:40:22.585Z,15.47
2023-03-24T11:47:58.710Z,15.73
2023-03-24T11:55:37.754Z,15.83
2023-03-24T12:03:51.406Z,15.89
2023-03-24T12:11:40.878Z,15.85
2023-03-24T12:19:38.577Z,15.82
2023-03-24T12:27:26.490Z,15.72
2023-03-24T12:35:26.896Z,15.65
2023-03-24T12:43:13.699Z,15.57
2023-03-24T12:51:00.021Z,15.42
2023-03-24T12:58:43.017Z,15.39
2023-03-24T13:06:24.128Z,15.30
2023-03-24T13:14:01.454Z,15.26
2023-03-24T13:21:35.502Z,15.24
2023-03-24T13:29:23.563Z,15.19
2023-03-24T13:37:03.804Z,15.15
2023-03-24T13:44:44.295Z,15.17
2023-03-24T13:52:33.798Z,15.10
2023-03-24T14:00:22.208Z,15.09
2023-03-24T14:08:43.746Z,15.14
2023-03-24T14:16:44.354Z,15.17
2023-03-24T14:24:24.896Z,15.06
2023-03-24T14:32:17.056Z,14.97
2023-03-24T14:39:57.456Z,14.98
2023-03-24T14:47:34.825Z,15.00
2023-03-24T14:55:13.481Z,15.17
2023-03-24T15:02:59.524Z,15.28
2023-03-24T15:10:38.246Z,15.33
2023-03-24T15:18:18.270Z,15.24
2023-03-24T15:25:54.469Z,15.40
2023-03-24T15:33:31.520Z,15.76
2023-03-24T15:41:09.242Z,15.74
2023-03-24T15:48:48.174Z,15.84
2023-03-24T15:56:27.198Z,15.99
2023-03-24T16:04:05.931Z,15.84
2023-03-24T16:11:39.972Z,15.62
2023-03-24T16:19:15.676Z,15.51
2023-03-24T16:26:50.071Z,15.15
2023-03-24T16:34:25.532Z,15.05
2023-03-24T16:41:59.596Z,14.89
2023-03-24T16:49:35.252Z,14.74
2023-03-24T16:57:09.326Z,14.57
2023-03-24T17:04:45.192Z,14.51
2023-03-24T17:12:19.210Z,14.39
2023-03-24T17:19:54.589Z,14.24
2023-03-24T17:27:28.536Z,14.14
2023-03-24T17:35:04.599Z,13.98
2023-03-24T17:42:40.373Z,13.80
2023-03-24T17:50:16.184Z,13.59
2023-03-24T17:57:50.098Z,13.39
2023-03-24T18:05:26.044Z,13.20
2023-03-24T18:13:01.510Z,13.02
2023-03-24T18:20:39.229Z,12.85
2023-03-24T18:28:13.137Z,12.62
2023-03-24T18:35:53.016Z,12.40
2023-03-24T18:43:27.871Z,12.18
2023-03-24T18:58:54.767Z,11.91
2023-03-24T19:06:32.089Z,11.77
2023-03-24T19:14:07.204Z,11.69
2023-03-24T19:21:43.017Z,11.56
2023-03-24T19:29:17.051Z,11.55
2023-03-24T19:36:52.417Z,11.42
2023-03-24T19:52:19.039Z,11.11
2023-03-24T19:59:52.965Z,10.94
2023-03-24T20:07:28.385Z,10.92
2023-03-24T20:15:02.894Z,10.89
2023-03-24T20:22:42.220Z,10.86
2023-03-24T20:30:17.876Z,10.85
2023-03-24T20:37:53.326Z,10.83
2023-03-24T20:53:20.249Z,10.66
2023-03-24T21:00:54.388Z,10.67
2023-03-24T21:16:21.220Z,10.57
2023-03-24T21:23:57.701Z,10.53
2023-03-24T21:31:31.871Z,10.45
2023-03-24T21:39:09.357Z,10.45
2023-03-24T21:46:45.136Z,10.44
2023-03-24T21:54:21.032Z,10.40
2023-03-24T22:01:55.040Z,10.34
2023-03-24T22:09:30.579Z,10.22
2023-03-24T22:17:05.109Z,10.06
2023-03-24T22:24:41.331Z,9.98
2023-03-24T22:32:15.704Z,9.92
2023-03-24T22:39:51.108Z,9.86
2023-03-24T22:47:25.038Z,9.78
2023-03-24T22:55:01.272Z,9.68
2023-03-24T23:02:35.535Z,9.61
2023-03-24T23:10:12.987Z,9.49
2023-03-24T23:17:47.180Z,9.45
2023-03-24T23:33:15.176Z,9.30
2023-03-24T23:40:50.794Z,9.24
2023-03-24T23:48:24.753Z,9.17
2023-03-24T23:56:02.035Z,9.07
